Time;durP1;ratioP1;P1;durP2;ratioP2;P2;SDS_P1;SDS_P2;PMS_P1;PMS_P2;Temp;Humidity;BMP_temperature;BMP_pressure;BME280_temperature;BME280_humidity;BME280_pressure;Samples;Min_cycle;Max_cycle;Signal;HPM_P1;HPM_P2
2023/09/05 00:02:02;;;;;;;;;11.60;11.40;;;;;17.65;100.00;99855.72;6248695;27;96837;-65
2023/09/05 00:05:07;;;;;;;;;12.00;12.00;;;;;17.62;100.00;99852.66;6260421;27;97385;-65
2023/09/05 00:08:11;;;;;;;;;9.40;9.00;;;;;17.55;100.00;99854.66;6244427;27;97232;-65
2023/09/05 00:11:14;;;;;;;;;10.67;10.00;;;;;17.49;100.00;99853.78;6245046;27;96542;-65
2023/09/05 00:14:20;;;;;;;;;12.00;11.00;;;;;17.27;100.00;99837.25;6263357;27;96548;-65
2023/09/05 00:17:23;;;;;;;;;9.00;8.50;;;;;17.32;100.00;99855.59;6245274;27;96492;-65
2023/09/05 00:20:27;;;;;;;;;10.60;10.60;;;;;17.25;100.00;99850.28;6264241;27;97086;-64
2023/09/05 00:23:31;;;;;;;;;9.00;9.00;;;;;17.22;100.00;99849.94;6264895;27;96412;-65
2023/09/05 00:26:34;;;;;;;;;10.00;10.00;;;;;17.16;100.00;99857.19;6272949;27;96363;-65
2023/09/05 00:29:41;;;;;;;;;13.40;13.00;;;;;17.16;100.00;99856.34;6288584;27;96699;-65
2023/09/05 00:32:46;;;;;;;;;11.00;10.60;;;;;17.14;100.00;99855.78;6271130;27;96365;-65
2023/09/05 00:35:53;;;;;;;;;7.00;6.80;;;;;17.09;100.00;99842.03;6290498;27;98009;-65
2023/09/05 00:39:02;;;;;;;;;12.00;11.00;;;;;17.14;100.00;99844.88;6265329;27;97532;-65
2023/09/05 00:42:09;;;;;;;;;12.00;11.00;;;;;17.11;100.00;99846.16;6283959;27;96168;-65
2023/09/05 00:45:12;;;;;;;;;12.00;11.00;;;;;17.10;100.00;99850.00;6279433;27;96318;-65
2023/09/05 00:48:15;;;;;;;;;11.00;11.00;;;;;17.12;100.00;99836.94;6245960;27;96822;-65
2023/09/05 00:51:20;;;;;;;;;10.60;10.60;;;;;17.15;100.00;99849.25;6268419;27;96304;-65
2023/09/05 00:54:24;;;;;;;;;13.25;12.25;;;;;17.11;100.00;99846.16;6259698;27;96532;-65
2023/09/05 00:57:29;;;;;;;;;9.60;9.40;;;;;17.08;100.00;99843.94;6264618;27;96766;-65
2023/09/05 01:00:32;;;;;;;;;9.00;9.00;;;;;17.05;100.00;99838.97;6247057;27;96888;-65
2023/09/05 01:03:36;;;;;;;;;10.00;10.00;;;;;16.97;100.00;99838.50;6257370;27;96322;-65
2023/09/05 01:06:46;;;;;;;;;9.00;9.00;;;;;16.91;100.00;99842.22;6267633;27;97482;-65
2023/09/05 01:09:57;;;;;;;;;10.75;10.25;;;;;16.85;100.00;99839.38;6290047;27;96343;-65
2023/09/05 01:13:00;;;;;;;;;11.80;10.40;;;;;16.81;100.00;99830.00;6262856;27;96570;-65
2023/09/05 01:16:04;;;;;;;;;12.00;12.00;;;;;16.79;100.00;99829.44;6244833;27;99845;-65
2023/09/05 01:19:07;;;;;;;;;12.60;12.60;;;;;16.76;100.00;99835.34;6245503;27;96851;-65
2023/09/05 01:22:22;;;;;;;;;10.60;9.00;;;;;16.73;100.00;99835.81;6264179;27;96437;-65
2023/09/05 01:25:28;;;;;;;;;13.40;12.00;;;;;16.72;100.00;99833.34;6280654;27;96556;-65
2023/09/05 01:28:35;;;;;;;;;11.00;10.00;;;;;16.71;100.00;99839.88;6254894;27;97642;-65
2023/09/05 01:31:40;;;;;;;;;12.40;11.00;;;;;16.66;100.00;99837.88;6264138;27;96728;-65
2023/09/05 01:34:43;;;;;;;;;12.00;11.00;;;;;16.64;100.00;99839.16;6284584;27;96548;-65
2023/09/05 01:37:46;;;;;;;;;10.00;9.40;;;;;16.62;100.00;99833.94;6289595;27;96327;-65
2023/09/05 01:40:51;;;;;;;;;9.75;9.00;;;;;16.61;100.00;99834.19;6253780;27;97943;-65
2023/09/05 01:43:54;;;;;;;;;13.60;13.60;;;;;16.58;100.00;99826.44;6262491;27;96633;-64
2023/09/05 01:46:57;;;;;;;;;11.50;10.50;;;;;16.55;100.00;99822.31;6270533;27;96274;-65
2023/09/05 01:50:00;;;;;;;;;12.60;12.00;;;;;16.60;100.00;99832.53;6270195;27;96764;-65
2023/09/05 01:53:04;;;;;;;;;12.00;10.40;;;;;16.62;100.00;99831.22;6288041;27;96542;-65
2023/09/05 01:56:09;;;;;;;;;15.00;14.00;;;;;16.60;100.00;99827.91;6272285;27;96395;-65
2023/09/05 01:59:12;;;;;;;;;11.50;11.00;;;;;16.55;100.00;99824.22;6264806;27;96509;-65
2023/09/05 02:02:16;;;;;;;;;10.20;9.60;;;;;16.44;100.00;99817.69;6258713;27;96961;-65
2023/09/05 02:05:19;;;;;;;;;11.80;10.80;;;;;16.47;100.00;99828.09;6286337;27;96954;-65
2023/09/05 02:08:22;;;;;;;;;11.25;10.25;;;;;16.44;100.00;99831.31;6268153;27;97075;-64
2023/09/05 02:11:27;;;;;;;;;11.20;10.60;;;;;16.42;100.00;99828.81;6285684;27;96313;-64
2023/09/05 02:14:30;;;;;;;;;10.00;9.50;;;;;16.41;100.00;99831.81;6264698;27;96719;-65
2023/09/05 02:17:34;;;;;;;;;11.80;11.60;;;;;16.38;100.00;99824.09;6242312;27;96759;-65
2023/09/05 02:20:37;;;;;;;;;12.00;11.60;;;;;16.33;100.00;99826.69;6241846;27;96698;-64
2023/09/05 02:23:41;;;;;;;;;10.60;10.00;;;;;16.33;100.00;99824.78;6261924;27;96260;-65
2023/09/05 02:26:46;;;;;;;;;14.80;13.80;;;;;16.32;100.00;99817.69;6282904;27;96276;-65
2023/09/05 02:29:56;;;;;;;;;11.60;11.00;;;;;16.32;100.00;99817.69;6269564;27;96440;-65
2023/09/05 02:32:59;;;;;;;;;13.20;12.00;;;;;16.34;100.00;99815.56;6261162;27;97001;-65
2023/09/05 02:36:10;;;;;;;;;14.25;13.25;;;;;16.27;100.00;99811.31;6282722;27;96389;-65
2023/09/05 02:39:13;;;;;;;;;12.00;11.00;;;;;16.31;100.00;99821.50;6276936;27;96666;-65
2023/09/05 02:42:18;;;;;;;;;12.00;12.00;;;;;16.31;100.00;99816.06;6252847;27;96996;-65
2023/09/05 02:45:21;;;;;;;;;14.00;13.00;;;;;16.28;100.00;99813.78;6259863;27;96319;-65
2023/09/05 02:48:24;;;;;;;;;13.00;13.00;;;;;16.28;100.00;99807.53;6270765;27;96553;-65
2023/09/05 02:51:27;;;;;;;;;14.40;13.40;;;;;16.31;100.00;99815.22;6260838;27;96653;-65
2023/09/05 02:54:31;;;;;;;;;11.00;10.00;;;;;16.31;100.00;99815.22;6284222;27;98126;-65
2023/09/05 02:57:36;;;;;;;;;10.00;10.00;;;;;16.30;100.00;99808.94;6268984;27;96567;-65
2023/09/05 03:00:39;;;;;;;;;17.60;16.60;;;;;16.29;100.00;99812.72;6266084;27;97762;-64
2023/09/05 03:03:42;;;;;;;;;17.00;16.00;;;;;16.28;100.00;99813.78;6243522;27;96773;-64
2023/09/05 03:06:46;;;;;;;;;12.00;12.00;;;;;16.30;100.00;99819.00;6262300;27;96808;-65
2023/09/05 03:09:51;;;;;;;;;12.40;12.40;;;;;16.28;100.00;99813.78;6260736;27;96882;-65
2023/09/05 03:12:57;;;;;;;;;12.60;12.60;;;;;16.27;100.00;99814.84;6246481;27;97135;-65
2023/09/05 03:16:00;;;;;;;;;7.00;5.50;;;;;16.26;100.00;99809.66;6254810;27;97272;-65
2023/09/05 03:19:04;;;;;;;;;12.40;11.40;;;;;16.27;100.00;99808.59;6262183;27;96675;-65
2023/09/05 03:22:08;;;;;;;;;10.40;9.40;;;;;16.29;100.00;99825.50;6234935;27;96700;-65
2023/09/05 03:25:11;;;;;;;;;12.00;10.75;;;;;16.28;100.00;99821.97;6274364;27;96749;-65
2023/09/05 03:28:16;;;;;;;;;12.00;12.00;;;;;16.14;100.00;99806.09;6239264;27;98491;-65
2023/09/05 03:31:21;;;;;;;;;11.00;10.00;;;;;16.23;100.00;99827.28;6260131;27;97513;-65
2023/09/05 03:34:26;;;;;;;;;9.00;8.00;;;;;16.20;100.00;99825.03;6259341;27;96355;-65
2023/09/05 03:37:29;;;;;;;;;9.00;8.00;;;;;16.19;100.00;99817.94;6266531;27;96306;-65
2023/09/05 03:40:33;;;;;;;;;11.00;10.25;;;;;16.11;100.00;99829.16;6253328;27;98486;-65
2023/09/05 03:43:37;;;;;;;;;9.80;9.00;;;;;16.07;100.00;99825.28;6282615;27;96546;-65
2023/09/05 03:46:40;;;;;;;;;12.00;11.00;;;;;16.00;100.00;99830.81;6279677;27;97329;-64
2023/09/05 03:49:43;;;;;;;;;11.60;10.00;;;;;15.97;100.00;99828.56;6268737;27;96341;-65
2023/09/05 03:52:47;;;;;;;;;11.00;10.00;;;;;15.95;100.00;99835.28;6275237;27;96607;-64
2023/09/05 03:55:50;;;;;;;;;10.00;9.25;;;;;15.94;100.00;99833.63;6247231;27;96759;-64
2023/09/05 03:58:55;;;;;;;;;11.00;10.00;;;;;15.88;100.00;99821.78;6238116;27;98536;-64
2023/09/05 04:01:58;;;;;;;;;13.25;12.00;;;;;15.90;100.00;99818.84;6260870;27;97140;-64
2023/09/05 04:05:01;;;;;;;;;14.00;13.00;;;;;15.92;100.00;99831.16;6254611;27;96671;-64
2023/09/05 04:08:07;;;;;;;;;13.00;12.25;;;;;15.94;100.00;99839.06;6284044;27;96637;-64
2023/09/05 04:11:10;;;;;;;;;11.40;11.00;;;;;15.96;100.00;99836.94;6277117;27;96649;-64
2023/09/05 04:14:15;;;;;;;;;9.40;8.40;;;;;15.96;100.00;99847.84;6255740;27;98607;-64
2023/09/05 04:17:18;;;;;;;;;10.00;9.00;;;;;15.97;100.00;99849.50;6254199;27;97019;-64
2023/09/05 04:20:21;;;;;;;;;10.75;10.00;;;;;15.99;100.00;99855.50;6273552;27;96475;-64
2023/09/05 04:23:24;;;;;;;;;11.00;10.00;;;;;16.03;100.00;99857.53;6266175;27;96821;-64
2023/09/05 04:26:29;;;;;;;;;11.00;10.60;;;;;16.07;100.00;99852.47;6265548;27;96546;-64
2023/09/05 04:29:34;;;;;;;;;14.00;12.00;;;;;16.12;100.00;99851.78;6245986;27;96347;-64
2023/09/05 04:32:37;;;;;;;;;11.20;9.20;;;;;16.18;100.00;99848.91;6279724;27;96734;-64
2023/09/05 04:35:40;;;;;;;;;11.80;10.20;;;;;16.25;100.00;99855.09;6250072;27;96733;-64
2023/09/05 04:38:44;;;;;;;;;14.00;12.40;;;;;16.32;100.00;99857.72;6264262;27;96319;-64
2023/09/05 04:41:48;;;;;;;;;10.00;9.00;;;;;16.38;100.00;99863.03;6266530;27;96787;-64
2023/09/05 04:44:52;;;;;;;;;13.25;12.75;;;;;16.45;100.00;99862.91;6281337;27;96419;-64
2023/09/05 04:47:56;;;;;;;;;12.00;11.50;;;;;16.54;100.00;99858.78;6280964;27;96694;-64
2023/09/05 04:51:01;;;;;;;;;14.00;11.00;;;;;16.54;100.00;99866.09;6250564;27;96266;-64
2023/09/05 04:54:05;;;;;;;;;10.20;9.20;;;;;16.51;100.00;99863.88;6288396;27;96308;-64
2023/09/05 04:57:10;;;;;;;;;10.80;10.80;;;;;16.50;100.00;99864.94;6265677;27;96478;-64
2023/09/05 05:00:17;;;;;;;;;12.00;10.00;;;;;16.61;100.00;99864.13;6267948;27;97081;-64
2023/09/05 05:03:21;;;;;;;;;11.40;11.40;;;;;16.72;100.00;99857.84;6269427;27;96712;-64
2023/09/05 05:06:28;;;;;;;;;15.00;13.80;;;;;16.76;100.00;99868.00;6245376;27;97821;-64
2023/09/05 05:09:32;;;;;;;;;11.00;10.60;;;;;16.92;100.00;99862.91;6268778;27;97798;-64
2023/09/05 05:12:35;;;;;;;;;14.75;12.00;;;;;17.07;100.00;99864.06;6258076;27;99699;-64
2023/09/05 05:15:40;;;;;;;;;10.60;9.60;;;;;17.27;100.00;99863.66;6265098;27;99707;-64
2023/09/05 05:18:43;;;;;;;;;15.80;13.00;;;;;17.45;100.00;99863.47;6254607;27;97473;-64
2023/09/05 05:21:46;;;;;;;;;13.00;11.40;;;;;17.65;100.00;99863.91;6251634;27;97072;-64
2023/09/05 05:24:50;;;;;;;;;14.00;14.00;;;;;17.86;100.00;99865.13;6240187;27;96917;-64
2023/09/05 05:27:53;;;;;;;;;12.00;12.00;;;;;18.07;100.00;99869.03;6269964;27;96369;-64
2023/09/05 05:30:58;;;;;;;;;13.60;12.00;;;;;18.30;100.00;99868.88;6243152;27;98653;-64
2023/09/05 05:34:02;;;;;;;;;14.75;13.00;;;;;18.53;100.00;99866.00;6265697;27;96647;-64
2023/09/05 05:37:05;;;;;;;;;13.50;13.00;;;;;18.74;100.00;99866.31;6262856;27;96382;-65
2023/09/05 05:40:11;;;;;;;;;12.00;12.00;;;;;18.98;100.00;99874.03;6271021;27;97631;-64
2023/09/05 05:43:14;;;;;;;;;12.00;11.60;;;;;19.27;100.00;99879.34;6288233;27;96567;-64
2023/09/05 05:46:19;;;;;;;;;14.00;14.00;;;;;19.52;100.00;99865.16;6251510;27;99162;-64
2023/09/05 05:49:23;;;;;;;;;13.80;12.40;;;;;19.78;100.00;99878.06;6258619;27;96719;-64
2023/09/05 05:52:26;;;;;;;;;15.40;14.00;;;;;20.00;100.00;99876.06;6261849;27;96813;-65
2023/09/05 05:55:29;;;;;;;;;15.00;14.40;;;;;20.19;100.00;99873.78;6273546;27;96420;-64
2023/09/05 05:58:35;;;;;;;;;13.00;12.50;;;;;20.45;100.00;99877.59;6274946;27;96595;-64
2023/09/05 06:01:39;;;;;;;;;13.60;13.00;;;;;20.61;100.00;99874.72;6264656;27;97271;-64
2023/09/05 06:04:42;;;;;;;;;13.00;12.00;;;;;20.76;100.00;99876.75;6282517;27;96920;-64
2023/09/05 06:07:46;;;;;;;;;12.00;10.60;;;;;21.03;100.00;99873.88;6286132;27;96396;-65
2023/09/05 06:10:50;;;;;;;;;13.00;12.40;;;;;21.15;100.00;99867.13;6286326;27;96943;-64
2023/09/05 06:13:53;;;;;;;;;14.00;13.00;;;;;21.45;100.00;99884.81;6278179;27;98389;-64
2023/09/05 06:16:57;;;;;;;;;12.00;11.60;;;;;21.64;100.00;99885.97;6284917;27;96535;-64
2023/09/05 06:20:00;;;;;;;;;13.20;12.00;;;;;21.84;100.00;99887.94;6276041;27;98531;-64
2023/09/05 06:23:04;;;;;;;;;10.00;9.80;;;;;21.97;100.00;99881.97;6252399;27;99238;-64
2023/09/05 06:26:08;;;;;;;;;10.60;10.60;;;;;22.13;100.00;99883.63;6252066;27;98591;-64
2023/09/05 06:29:11;;;;;;;;;15.60;13.00;;;;;22.34;100.00;99882.53;6267809;27;97003;-65
2023/09/05 06:32:15;;;;;;;;;10.00;9.00;;;;;22.38;100.00;99880.06;6287777;27;97608;-65
2023/09/05 06:35:18;;;;;;;;;11.60;10.60;;;;;22.53;100.00;99879.25;6271003;27;98767;-64
2023/09/05 06:38:23;;;;;;;;;11.00;10.60;;;;;22.73;100.00;99879.22;6274851;27;96787;-64
2023/09/05 06:41:26;;;;;;;;;11.60;10.60;;;;;22.90;100.00;99879.75;6281913;27;98708;-65
2023/09/05 06:44:32;;;;;;;;;13.40;12.00;;;;;23.03;100.00;99878.34;6287716;27;96359;-65
2023/09/05 06:47:37;;;;;;;;;14.00;11.60;;;;;23.17;100.00;99880.22;6287553;27;96556;-65
2023/09/05 06:50:40;;;;;;;;;13.40;13.00;;;;;23.30;100.00;99885.16;6287157;27;96410;-64
2023/09/05 06:53:43;;;;;;;;;11.00;11.00;;;;;23.27;100.00;99888.44;6266454;27;96998;-65
2023/09/05 06:56:46;;;;;;;;;12.00;11.00;;;;;23.27;100.00;99884.88;6266637;27;96558;-65
2023/09/05 06:59:50;;;;;;;;;11.40;10.60;;;;;23.27;100.00;99885.69;6287289;27;96532;-64
2023/09/05 07:02:55;;;;;;;;;11.00;11.00;;;;;23.43;100.00;99886.47;6301627;27;96267;-64
2023/09/05 07:05:58;;;;;;;;;14.25;13.25;;;;;23.78;100.00;99885.50;6251504;27;96669;-65
2023/09/05 07:09:09;;;;;;;;;16.25;15.25;;;;;24.13;100.00;99890.78;6256080;27;96731;-65
2023/09/05 07:12:12;;;;;;;;;17.00;14.40;;;;;24.41;100.00;99883.72;6280599;27;96377;-64
2023/09/05 07:15:16;;;;;;;;;14.00;12.40;;;;;24.61;100.00;99885.47;6288459;27;96871;-65
2023/09/05 07:18:20;;;;;;;;;13.00;11.00;;;;;24.89;100.00;99892.13;6283630;27;96895;-65
2023/09/05 07:21:23;;;;;;;;;14.00;13.00;;;;;25.20;100.00;99887.91;6291250;27;96281;-65
2023/09/05 07:24:29;;;;;;;;;12.00;10.00;;;;;25.59;100.00;99879.47;6278215;27;96282;-65
2023/09/05 07:27:32;;;;;;;;;12.60;11.80;;;;;25.93;100.00;99870.13;6265968;27;96872;-65
2023/09/05 07:30:35;;;;;;;;;13.00;11.40;;;;;26.26;100.00;99880.97;6276143;27;96669;-64
2023/09/05 07:33:40;;;;;;;;;13.25;13.25;;;;;26.58;100.00;99882.13;6283796;27;96765;-65
2023/09/05 07:36:43;;;;;;;;;13.00;13.00;;;;;26.66;100.00;99862.06;6284115;27;96922;-65
2023/09/05 07:39:49;;;;;;;;;15.50;14.00;;;;;26.72;100.00;99872.72;6279003;27;96614;-65
2023/09/05 07:42:53;;;;;;;;;14.00;12.20;;;;;26.91;100.00;99877.41;6274431;27;96293;-65
2023/09/05 07:45:56;;;;;;;;;15.60;13.60;;;;;27.20;100.00;99885.41;6288537;27;96482;-65
2023/09/05 07:49:03;;;;;;;;;15.00;13.50;;;;;27.32;100.00;99892.06;6271820;27;97542;-65
2023/09/05 07:52:07;;;;;;;;;15.00;13.00;;;;;27.65;100.00;99883.69;6273571;27;96786;-65
2023/09/05 07:55:10;;;;;;;;;19.40;18.40;;;;;27.86;100.00;99882.09;6291012;27;96340;-65
2023/09/05 07:58:13;;;;;;;;;16.50;15.00;;;;;27.82;100.00;99881.88;6290597;27;96422;-65
2023/09/05 08:01:17;;;;;;;;;16.00;15.00;;;;;28.09;100.00;99867.16;6268382;27;98460;-65
2023/09/05 08:04:22;;;;;;;;;17.00;17.00;;;;;28.53;100.00;99869.13;6289197;27;96507;-65
2023/09/05 08:07:25;;;;;;;;;15.75;14.50;;;;;28.81;100.00;99856.75;6288859;27;96908;-65
2023/09/05 08:10:28;;;;;;;;;16.20;15.00;;;;;29.18;100.00;99872.09;6289749;27;97206;-65
2023/09/05 08:13:31;;;;;;;;;13.00;11.00;;;;;29.59;100.00;99865.38;6283771;27;98297;-65
2023/09/05 08:16:35;;;;;;;;;12.00;11.00;;;;;29.99;100.00;99866.13;6267085;27;98666;-65
2023/09/05 08:19:39;;;;;;;;;14.50;12.50;;;;;30.28;100.00;99857.94;6288074;27;96398;-65
2023/09/05 08:22:44;;;;;;;;;10.60;9.60;;;;;30.45;95.11;99862.66;6269309;27;97319;-65
2023/09/05 08:25:51;;;;;;;;;11.75;10.75;;;;;30.34;93.34;99864.16;6290275;27;96570;-65
2023/09/05 08:28:54;;;;;;;;;11.25;10.50;;;;;30.13;95.25;99862.03;6290433;27;96264;-65
2023/09/05 08:31:58;;;;;;;;;12.00;12.00;;;;;30.45;98.37;99848.72;6289753;27;96542;-65
2023/09/05 08:35:03;;;;;;;;;12.00;11.40;;;;;30.87;96.57;99836.72;6290235;27;96337;-65
2023/09/05 08:38:06;;;;;;;;;12.00;11.00;;;;;30.89;87.36;99845.53;6280203;27;98124;-65
2023/09/05 08:41:10;;;;;;;;;13.00;11.00;;;;;30.67;87.63;99845.78;6290112;27;96281;-65
2023/09/05 08:44:13;;;;;;;;;10.40;9.40;;;;;31.06;93.24;99841.91;6289786;27;96542;-65
2023/09/05 08:47:16;;;;;;;;;12.00;9.00;;;;;31.66;92.69;99846.38;6286331;27;98945;-65
2023/09/05 08:50:22;;;;;;;;;10.00;8.00;;;;;32.08;88.18;99848.00;6282517;27;96282;-65
2023/09/05 08:53:31;;;;;;;;;6.75;6.00;;;;;32.25;75.16;99847.84;6273832;27;96828;-65
2023/09/05 08:56:34;;;;;;;;;9.60;9.60;;;;;32.01;74.66;99838.56;6290300;27;96947;-65
2023/09/05 08:59:37;;;;;;;;;8.40;8.00;;;;;32.08;81.21;99842.41;6282898;27;98579;-65
2023/09/05 09:02:40;;;;;;;;;11.40;10.00;;;;;32.51;83.19;99838.41;6284305;27;97191;-65
2023/09/05 09:05:46;;;;;;;;;12.20;10.80;;;;;32.68;80.13;99841.06;6276949;27;97504;-65
2023/09/05 09:08:50;;;;;;;;;8.20;8.00;;;;;32.97;82.96;99834.47;6272715;27;97196;-65
2023/09/05 09:12:00;;;;;;;;;9.40;8.40;;;;;33.37;78.84;99837.44;6280372;27;96917;-65
2023/09/05 09:15:10;;;;;;;;;8.00;7.00;;;;;33.70;74.47;99838.09;6254576;27;96325;-66
2023/09/05 09:18:13;;;;;;;;;9.00;8.00;;;;;33.94;74.61;99846.44;6270600;27;97099;-65
2023/09/05 09:21:18;;;;;;;;;7.50;7.50;;;;;34.31;73.46;99849.94;6289152;27;96414;-66
2023/09/05 09:24:32;;;;;;;;;8.60;8.00;;;;;34.39;70.07;99853.78;6270284;27;96892;-65
2023/09/05 09:27:36;;;;;;;;;9.00;8.20;;;;;34.61;66.59;99855.16;6283854;27;96301;-65
2023/09/05 09:30:39;;;;;;;;;9.00;8.00;;;;;34.78;69.20;99860.47;6289124;27;96377;-65
2023/09/05 09:33:43;;;;;;;;;10.00;8.50;;;;;34.64;68.59;99848.84;6280894;27;96859;-65
2023/09/05 09:36:51;;;;;;;;;8.50;7.00;;;;;34.53;68.48;99834.56;6276689;27;96384;-65
2023/09/05 09:39:58;;;;;;;;;6.20;6.20;;;;;34.68;58.80;99835.78;6289307;27;97156;-65
2023/09/05 09:43:02;;;;;;;;;6.60;6.20;;;;;34.58;58.42;99839.06;6287863;27;96380;-66
2023/09/05 09:46:08;;;;;;;;;8.00;8.00;;;;;34.35;66.81;99834.06;6288668;27;97567;-65
2023/09/05 09:49:12;;;;;;;;;8.00;7.00;;;;;34.35;68.17;99825.69;6270978;27;96705;-65
2023/09/05 09:52:20;;;;;;;;;11.00;10.00;;;;;34.20;63.52;99832.03;6275692;27;99781;-65
2023/09/05 09:55:27;;;;;;;;;10.00;7.20;;;;;34.01;61.89;99829.06;6284693;27;96375;-65
2023/09/05 09:58:32;;;;;;;;;7.60;7.00;;;;;33.62;63.66;99821.44;6270053;27;96729;-65
2023/09/05 10:01:38;;;;;;;;;8.25;7.00;;;;;33.93;67.76;99827.19;6287922;27;96849;-65
2023/09/05 10:04:46;;;;;;;;;6.00;6.00;;;;;34.47;66.25;99821.97;6286978;27;96477;-66
2023/09/05 10:07:52;;;;;;;;;9.00;8.00;;;;;35.05;64.08;99825.94;6273809;27;97075;-65
2023/09/05 10:10:56;;;;;;;;;6.50;6.50;;;;;34.58;54.93;99811.06;6286757;27;96469;-65
2023/09/05 10:13:59;;;;;;;;;6.00;5.00;;;;;34.97;59.87;99820.53;6276506;27;98454;-65
2023/09/05 10:17:04;;;;;;;;;7.75;6.00;;;;;34.68;54.29;99825.41;6285262;27;96333;-65
2023/09/05 10:20:09;;;;;;;;;6.80;6.80;;;;;34.85;58.66;99818.63;6277436;27;97564;-66
2023/09/05 10:23:15;;;;;;;;;9.00;9.00;;;;;35.05;56.34;99809.13;6287603;27;96306;-65
2023/09/05 10:26:19;;;;;;;;;5.25;5.25;;;;;35.20;52.80;99808.31;6257011;27;96768;-66
2023/09/05 10:29:33;;;;;;;;;5.00;5.00;;;;;35.03;55.73;99805.06;6283593;27;96571;-66
2023/09/05 10:32:36;;;;;;;;;7.00;6.00;;;;;34.97;52.49;99818.53;6281874;27;96697;-65
2023/09/05 10:35:44;;;;;;;;;6.00;6.00;;;;;35.00;56.60;99808.56;6287687;27;96355;-65
2023/09/05 10:38:57;;;;;;;;;5.00;4.40;;;;;34.99;49.60;99804.97;6287854;27;96530;-65
2023/09/05 10:42:01;;;;;;;;;6.00;6.00;;;;;35.03;47.69;99800.28;6278588;27;96638;-65
2023/09/05 10:45:18;;;;;;;;;7.00;6.00;;;;;33.64;48.71;99794.72;6270399;27;96324;-66
2023/09/05 10:48:33;;;;;;;;;8.00;7.00;;;;;32.95;53.17;99792.09;6261995;27;98493;-65
2023/09/05 10:51:36;;;;;;;;;6.00;6.00;;;;;33.53;53.70;99792.78;6285722;27;96447;-65
2023/09/05 10:54:42;;;;;;;;;6.80;6.20;;;;;33.67;53.92;99796.03;6268768;27;96425;-65
2023/09/05 10:57:50;;;;;;;;;5.50;5.00;;;;;33.16;46.31;99778.84;6261814;27;98406;-65
2023/09/05 11:00:53;;;;;;;;;6.00;5.60;;;;;33.18;57.17;99784.09;6262312;27;96859;-65
2023/09/05 11:03:56;;;;;;;;;8.40;8.00;;;;;33.25;48.58;99776.75;6268391;27;96969;-65
2023/09/05 11:07:08;;;;;;;;;7.25;5.50;;;;;33.34;49.89;99774.63;6280559;27;96498;-65
2023/09/05 11:10:26;;;;;;;;;6.00;6.00;;;;;33.83;54.13;99774.53;6286895;27;96410;-65
2023/09/05 11:13:29;;;;;;;;;5.00;4.50;;;;;34.02;51.64;99769.09;6280006;27;96412;-66
2023/09/05 11:16:47;;;;;;;;;6.00;5.40;;;;;34.35;49.49;99758.47;6258918;27;96395;-66
2023/09/05 11:19:53;;;;;;;;;5.60;5.60;;;;;34.31;48.14;99756.72;6249102;27;96677;-65
2023/09/05 11:22:56;;;;;;;;;6.00;5.80;;;;;33.85;45.55;99756.25;6266411;27;96852;-65
2023/09/05 11:26:04;;;;;;;;;4.20;3.60;;;;;33.69;54.09;99754.53;6282941;27;96559;-65
2023/09/05 11:29:07;;;;;;;;;7.60;7.00;;;;;33.86;44.90;99749.50;6252176;27;96595;-64
2023/09/05 11:32:12;;;;;;;;;4.60;4.60;;;;;34.30;51.07;99741.13;6261709;27;96996;-65
2023/09/05 11:35:16;;;;;;;;;6.40;6.00;;;;;34.67;45.55;99736.09;6279909;27;96460;-65
2023/09/05 11:38:25;;;;;;;;;6.00;5.00;;;;;34.49;41.19;99740.44;6272500;27;96543;-65
2023/09/05 11:41:39;;;;;;;;;6.60;6.60;;;;;33.91;41.54;99731.63;6254817;27;96855;-65
2023/09/05 11:44:43;;;;;;;;;6.00;6.00;;;;;34.31;49.22;99729.56;6256585;27;97130;-66
2023/09/05 11:47:47;;;;;;;;;5.00;4.80;;;;;34.14;36.51;99720.66;6260536;27;97474;-65
2023/09/05 11:50:52;;;;;;;;;6.00;5.00;;;;;34.38;42.33;99712.16;6284483;27;96531;-65
2023/09/05 11:53:55;;;;;;;;;6.00;5.60;;;;;34.54;43.31;99712.97;6283358;27;96339;-66
2023/09/05 11:57:02;;;;;;;;;4.40;4.40;;;;;34.81;37.20;99708.44;6265830;27;98598;-65
2023/09/05 12:00:07;;;;;;;;;4.00;4.00;;;;;34.73;43.19;99715.06;6265731;27;96899;-65
2023/09/05 12:03:12;;;;;;;;;4.60;4.60;;;;;34.92;44.01;99712.31;6269782;27;96843;-66
2023/09/05 12:06:16;;;;;;;;;6.00;5.00;;;;;35.08;43.16;99701.91;6247356;27;99331;-66
2023/09/05 12:09:20;;;;;;;;;7.00;6.00;;;;;34.84;38.87;99707.75;6288933;27;96177;-65
2023/09/05 12:12:25;;;;;;;;;6.00;6.00;;;;;34.69;46.01;99703.78;6270074;27;96617;-65
2023/09/05 12:15:30;;;;;;;;;7.60;7.00;;;;;34.86;40.90;99698.94;6288601;27;96444;-65
2023/09/05 12:18:34;;;;;;;;;4.00;4.00;;;;;34.32;38.00;99700.41;6263078;27;96689;-65
2023/09/05 12:21:41;;;;;;;;;8.00;6.80;;;;;33.93;42.32;99692.91;6288593;27;96328;-65
2023/09/05 12:24:44;;;;;;;;;8.75;8.00;;;;;33.78;44.36;99688.06;6263958;27;98660;-65
2023/09/05 12:27:54;;;;;;;;;6.00;5.40;;;;;33.46;47.04;99670.38;6290029;27;96493;-65
2023/09/05 12:31:06;;;;;;;;;8.60;6.80;;;;;32.95;47.59;99675.56;6280454;27;96960;-66
2023/09/05 12:34:09;;;;;;;;;7.00;7.00;;;;;33.01;51.92;99664.97;6263934;27;96319;-65
2023/09/05 12:37:12;;;;;;;;;6.00;5.00;;;;;32.50;49.50;99666.53;6276464;27;98079;-65
2023/09/05 12:40:16;;;;;;;;;5.75;5.75;;;;;32.77;57.48;99670.59;6264385;27;97073;-66
2023/09/05 12:43:20;;;;;;;;;5.75;5.00;;;;;31.99;54.23;99657.56;6273607;27;96802;-65
2023/09/05 12:46:23;;;;;;;;;7.00;6.00;;;;;31.94;56.88;99660.59;6276614;27;96576;-65
2023/09/05 12:49:27;;;;;;;;;5.20;5.00;;;;;32.03;53.06;99658.50;6270453;27;96801;-65
2023/09/05 12:52:30;;;;;;;;;6.40;6.00;;;;;32.47;54.49;99658.81;6277663;27;97084;-65
2023/09/05 12:55:36;;;;;;;;;4.00;4.00;;;;;32.41;47.55;99646.25;6251756;27;96926;-66
2023/09/05 12:58:41;;;;;;;;;5.00;5.00;;;;;31.87;51.34;99651.94;6269853;27;97092;-66
2023/09/05 13:01:45;;;;;;;;;6.00;6.00;;;;;31.67;58.68;99661.19;6277619;27;96545;-65
2023/09/05 13:04:48;;;;;;;;;5.00;5.00;;;;;31.90;54.56;99648.50;6247119;27;97142;-65
2023/09/05 13:07:52;;;;;;;;;5.00;4.80;;;;;31.92;51.12;99643.38;6276529;27;96626;-67
2023/09/05 13:10:55;;;;;;;;;5.00;4.00;;;;;31.42;47.65;99629.59;6280100;27;96418;-66
2023/09/05 13:14:00;;;;;;;;;6.00;5.00;;;;;31.37;50.65;99655.69;6263655;27;97754;-66
2023/09/05 13:17:03;;;;;;;;;5.00;4.00;;;;;31.11;45.50;99643.94;6287283;27;96719;-66
2023/09/05 13:20:08;;;;;;;;;3.00;3.00;;;;;31.27;47.02;99641.38;6270408;27;96198;-66
2023/09/05 13:23:12;;;;;;;;;4.00;4.00;;;;;31.63;55.53;99640.72;6275079;27;96847;-66
2023/09/05 13:26:15;;;;;;;;;5.00;5.00;;;;;31.82;51.61;99619.53;6282174;27;97051;-65
2023/09/05 13:29:19;;;;;;;;;5.00;3.75;;;;;31.75;42.51;99624.88;6272556;27;96248;-66
2023/09/05 13:32:23;;;;;;;;;5.40;4.40;;;;;31.74;46.04;99625.19;6273428;27;96465;-66
2023/09/05 13:35:26;;;;;;;;;4.00;4.00;;;;;31.60;48.40;99617.16;6287758;27;96828;-66
2023/09/05 13:38:29;;;;;;;;;5.00;5.00;;;;;30.93;44.36;99623.75;6281643;27;96445;-66
2023/09/05 13:41:33;;;;;;;;;5.00;5.00;;;;;30.46;49.40;99611.91;6288335;27;96593;-66
2023/09/05 13:44:37;;;;;;;;;5.50;4.00;;;;;30.47;48.93;99619.13;6253617;27;98254;-66
2023/09/05 13:47:42;;;;;;;;;5.40;5.40;;;;;30.21;43.33;99614.78;6261538;27;96885;-66
2023/09/05 13:50:46;;;;;;;;;6.00;5.75;;;;;30.27;45.77;99614.28;6280223;27;96523;-66
2023/09/05 13:53:49;;;;;;;;;4.60;4.60;;;;;30.19;48.05;99605.97;6285907;27;98116;-66
2023/09/05 13:56:52;;;;;;;;;4.00;4.00;;;;;30.08;50.74;99616.66;6267298;27;98383;-66
2023/09/05 13:59:57;;;;;;;;;5.50;5.00;;;;;29.96;51.59;99603.44;6267901;27;97350;-66
2023/09/05 14:03:00;;;;;;;;;6.00;5.00;;;;;30.15;50.88;99608.63;6286487;27;96552;-66
2023/09/05 14:06:04;;;;;;;;;2.40;2.40;;;;;30.34;54.89;99600.66;6287177;27;96821;-66
2023/09/05 14:09:07;;;;;;;;;4.00;3.00;;;;;30.57;49.41;99601.22;6268487;27;97348;-66
2023/09/05 14:12:17;;;;;;;;;4.00;3.00;;;;;30.26;52.42;99611.81;6260774;27;96563;-66